Langdon, KS (67583)

12:43 PM CDT on September 25, 2016 (GMT -0500)
Stafford | | Change Station

Elev 1880 ft 37.96 °N, 98.61 °W | Updated 3 minutes ago

Clear
Clear
68.0 °F
Feels Like 68.0 °F
N
6.3
Wind Variable Wind from ESE

Today
High -- | Low -- °F
--% Chance of Precip.
Yesterday
High -- | Low -- °F
Precip. -- in
Pressure 30.25 in
Visibility 10.0 miles
Clouds Clear
Dew Point 50 °F
Humidity 52%
Rainfall 0.02 in
Snow Depth Not available.
7:24 AM 7:25 PM
Waning Crescent, 26% visible
METAR KPTT 251735Z AUTO 01017G25KT 10SM CLR 17/07 A3025 RMK AO2 T01720071
Pressure 30.25 in
Visibility 10.0 miles
Clouds Clear
Dew Point 50 °F
Humidity 52%
Rainfall 0.02 in
Snow Depth Not available.
7:24 AM 7:25 PM
Waning Crescent, 26% visible
METAR KPTT 251735Z AUTO 01017G25KT 10SM CLR 17/07 A3025 RMK AO2 T01720071

10-Day Weather Forecast

Almanac

Astronomy

Sep. 25, 2016 Rise Set
Actual Time
Civil Twilight
Nautical Twilight
Astronomical Twilight
Moon
Length of Visible Light
Length of Day
Tomorrow will be .
, % of the Moon is Illuminated

Today's Extremes

State Highs State Lows

Community

WunderPhotos

Upload Photos

1,941,674 photos uploaded!

WunderBlog® & News

Nearby

Air Quality

  Air Quality AQ Index Pollutant
Not available.

Snow Depth

Station Depth Elevation

Earthquake Activity

City Distance Mag. Time & Date
Minimum magnitude displayed is 2.5.

Coastal Water Temperatures

Place Temperature

Stations

Nearby Weather Stations

Station Location Temp. Windchill Dew Point Humidity Wind Precip. Elev Updated Type
                   

Watches & Warnings

There are currently no watches in effect.